Flight Track Log - Related Links

Times and Time Zones

All times are in EDT time to prevent confusion due to time zone crossing. See the KAP29 flight status page for this flight to view local times or setup timezone preferences in your user account.

Time Position Orientation Groundspeed Altitude Reporting Facility
EDT Latitude Longitude Course Direction KTS MPH feet Rate Location/Type
Mon 06:45:43 PM 42.3833 -71.0000 324° Northwest 103 119 400  Level KA90
Mon 06:46:31 PM 42.4000 -71.0167 324° Northwest 134 154 1,100 889 Climbing KA90
Mon 06:47:31 PM 42.4333 -71.0500 324° Northwest 139 160 2,000 950 Climbing KA90
Mon 06:48:31 PM 42.4667 -71.0667 340° North 145 167 3,000 900 Climbing KA90
Mon 06:49:31 PM 42.5000 -71.1000 324° Northwest 132 152 3,800 750 Climbing KA90
Mon 06:50:31 PM 42.5333 -71.1167 340° North 127 146 4,500 633 Climbing KA90
Mon 06:52:31 PM 42.6000 -71.1500 340° North 129 148 5,700 533 Climbing KA90
Mon 06:53:31 PM 42.6333 -71.1833 324° Northwest 142 163 6,100 450 Climbing KA90
Mon 06:54:31 PM 42.6667 -71.2000 340° North 147 169 6,600 450 Climbing KA90
Mon 06:55:31 PM 42.7167 -71.2167 346° North 151 174 7,000 450 Climbing KA90
Mon 06:56:31 PM 42.7500 -71.2500 324° Northwest 154 177 7,500 500 Climbing KA90
Mon 06:57:31 PM 42.7833 -71.2667 340° North 153 176 8,000 300 Climbing KA90
Mon 06:58:31 PM 42.8167 -71.3000 324° Northwest 158 182 8,100 50 Climbing KA90
Mon 06:59:31 PM 42.8500 -71.3500 312° West 169 194 8,100  Level KA90
Mon 07:00:31 PM 42.8833 -71.4000 312° West 172 198 8,100  Level KA90
Mon 07:01:31 PM 42.9167 -71.4500 312° West 173 199 8,100  Level KA90
Mon 07:02:31 PM 42.9500 -71.5000 312° West 174 200 8,100  Level KA90
Mon 07:03:31 PM 42.9833 -71.5500 312° West 176 203 8,100  Level KA90
Mon 07:04:31 PM 43.0167 -71.6000 312° West 177 204 8,100  Level KA90
Mon 07:05:31 PM 43.0500 -71.6500 312° West 177 204 8,100  Level KA90
Mon 07:06:31 PM 43.0833 -71.6833 324° Northwest 176 203 8,100  Level KA90
Mon 07:07:44 PM 43.1256 -71.7544 309° West 186 214 8,100  Level Boston Center
Mon 07:08:44 PM 43.1572 -71.7969 316° Northwest 179 206 8,100  Level Boston Center
Mon 07:09:44 PM 43.1928 -71.8506 312° West 174 200 8,100  Level Boston Center
Mon 07:10:44 PM 43.2222 -71.8931 314° West 179 206 8,100  Level Boston Center
Mon 07:11:44 PM 43.2581 -71.9469 312° West 179 206 8,100  Level Boston Center
Mon 07:12:44 PM 43.2853 -71.9867 313° West 179 206 8,100  Level Boston Center
Mon 07:13:44 PM 43.3208 -72.0406 312° West 173 199 8,100  Level Boston Center
Mon 07:14:44 PM 43.3481 -72.0803 313° West 167 192 8,100  Level Boston Center
Mon 07:15:44 PM 43.3858 -72.1344 314° West 167 192 8,100  Level Boston Center
Mon 07:16:44 PM 43.4172 -72.1800 313° West 167 192 8,100  Level Boston Center
Mon 07:17:44 PM 43.4486 -72.2256 314° West 167 192 8,100  Level Boston Center
Mon 07:18:44 PM 43.4797 -72.2742 311° West 167 192 8,100  Level Boston Center
Mon 07:19:45 PM 43.5111 -72.3197 314° West 167 192 8,100  Level Boston Center
Mon 07:20:44 PM 43.5444 -72.3686 313° West 167 192 8,100  Level Boston Center
Mon 07:21:44 PM 43.5758 -72.4144 313° West 167 192 8,100  Level Boston Center
Mon 07:22:44 PM 43.6092 -72.4631 313° West 167 192 8,100  Level Boston Center
Mon 07:23:44 PM 43.6403 -72.5089 313° West 167 192 8,100  Level Boston Center
Mon 07:24:44 PM 43.6717 -72.5578 312° West 167 192 8,100  Level Boston Center
Mon 07:25:44 PM 43.7050 -72.6039 315° West 167 192 8,100 -50 Level Boston Center
Mon 07:26:44 PM 43.7381 -72.6528 313° West 167 192 8,000 -50 Descending Boston Center
Mon 07:27:45 PM 43.7672 -72.7044 308° West 167 192 8,000  Level Boston Center
Mon 07:28:44 PM 43.7964 -72.7478 313° West 162 186 8,000  Level Boston Center
Mon 07:29:45 PM 43.8275 -72.7939 313° West 162 186 8,000  Level Boston Center
Mon 07:30:45 PM 43.8606 -72.8403 315° West 162 186 8,000  Level Boston Center
Mon 07:31:44 PM 43.8894 -72.8867 311° West 162 186 8,000  Level Boston Center
Mon 07:32:44 PM 43.9206 -72.9358 311° West 162 186 8,000  Level Boston Center
Mon 07:33:44 PM 43.9539 -72.9850 313° West 162 186 8,000  Level Boston Center
Mon 07:34:44 PM 43.9847 -73.0317 313° West 162 186 8,000  Level Boston Center
Mon 07:35:44 PM 44.0158 -73.0808 311° West 162 186 8,000  Level Boston Center
Mon 07:36:44 PM 44.0508 -73.1333 313° West 162 186 8,000  Level Boston Center
Mon 07:37:44 PM 44.0819 -73.1828 311° West 162 186 8,000  Level Boston Center
Mon 07:38:44 PM 44.1147 -73.2325 313° West 162 186 8,000  Level Boston Center
Mon 07:39:44 PM 44.1458 -73.2792 313° West 162 186 8,000  Level Boston Center
Mon 07:40:44 PM 44.1786 -73.3286 313° West 162 186 8,000  Level Boston Center
Mon 07:41:45 PM 44.2075 -73.3783 309° West 162 186 8,000  Level Boston Center
Mon 07:42:44 PM 44.2383 -73.4253 313° West 162 186 8,000  Level Boston Center
Mon 07:43:45 PM 44.2714 -73.4722 315° West 162 186 8,000  Level Boston Center
Mon 07:44:44 PM 44.3022 -73.5192 313° West 168 193 8,000  Level Boston Center
Mon 07:45:44 PM 44.3328 -73.5661 312° West 168 193 8,000  Level Boston Center
Mon 07:46:44 PM 44.3658 -73.6133 314° West 168 193 8,000  Level Boston Center
Mon 07:47:44 PM 44.3944 -73.6633 309° West 168 193 8,000  Level Boston Center
Mon 07:48:45 PM 44.4231 -73.7075 312° West 168 193 8,000  Level Boston Center
Mon 07:49:44 PM 44.4539 -73.7544 313° West 168 193 8,000  Level Boston Center
Mon 07:50:44 PM 44.4844 -73.8019 312° West 168 193 8,000  Level Boston Center

Login

Don't have an account? Register now (free) for customized features, flight alerts, and more!